Last 24 Hours

Pinyon

10 Minute Data | America/Los_Angeles
as of 9/1/26 12:19 PM PDT
Date & Time Temp (°F) Dew Pt (°F) RH (%) Wind Spd (mph) Wind Dir (°) Wind Gust (mph) Wind Gst Dir (°) Daily Max Temp (°F) Daily Min Temp (°F)
9/1/26 - 1210 77.9 38.2 24 16.6 NNW | 341 27.8 N | 350 78.3 63.3
9/1/26 - 1200 77.6 38.0 24 16.6 NNW | 339 26.5 NW | 326 78.3 63.3
9/1/26 - 1150 77.3 39.1 25 18.5 NNW | 347 29.7 NNW | 342 77.8 63.3
9/1/26 - 1140 77.0 40.2 27 17.2 NNW | 345 24.4 NNW | 346 77.8 63.3
9/1/26 - 1130 77.0 40.2 27 17.9 NNW | 337 27.2 N | 353 77.8 63.3
9/1/26 - 1120 76.2 40.8 28 18.1 NNW | 343 26.6 N | 349 76.6 63.3
9/1/26 - 1110 76.0 41.8 29 18.2 NNW | 334 30.4 NNW | 336 76.4 63.3
9/1/26 - 1100 75.8 41.3 29 17.5 NNW | 346 28.7 NNW | 345 76.4 63.3
9/1/26 - 1050 75.4 41.2 29 20.0 NNW | 348 28.3 N | 349 76.4 63.3
9/1/26 - 1040 75.7 40.4 28 16.7 NNW | 339 27.7 NNW | 342 76.4 63.3
9/1/26 - 1030 74.7 40.9 30 19.4 NNW | 342 28.1 NNW | 335 75.1 63.3
9/1/26 - 1020 74.4 39.3 28 19.2 NNW | 336 27.6 NNW | 334 74.9 63.3
9/1/26 - 1010 74.4 38.6 27 19.5 NNW | 340 28.6 NNW | 335 74.9 63.3
9/1/26 - 1000 74.0 35.6 25 18.4 NNW | 335 27.9 NNW | 339 74.9 63.3
9/1/26 - 0950 73.4 35.6 25 19.6 NNW | 336 28.1 NNW | 329 73.8 63.3
9/1/26 - 0940 73.4 32.5 22 18.7 NNW | 336 26.4 NNW | 333 73.7 63.3
9/1/26 - 0930 73.2 29.0 19 17.0 NNW | 336 24.3 NNW | 338 73.7 63.3
9/1/26 - 0920 72.6 28.2 19 19.2 NNW | 339 26.7 NNW | 345 73.1 63.3
9/1/26 - 0910 72.4 26.6 18 18.7 NNW | 344 24.8 N | 352 72.8 63.3
9/1/26 - 0900 71.8 24.7 17 18.9 NNW | 341 28.0 NNW | 331 72.2 63.3
9/1/26 - 0850 71.4 23.9 17 18.6 NNW | 335 26.1 NW | 325 71.8 63.3
9/1/26 - 0840 71.1 23.8 17 18.4 NNW | 334 25.7 NNW | 346 71.3 63.3
9/1/26 - 0830 70.7 23.7 17 18.5 NNW | 333 25.3 NW | 323 70.8 63.3
9/1/26 - 0820 70.3 22.6 16 17.8 NNW | 334 26.4 N | 351 70.6 63.3
9/1/26 - 0810 70.1 21.8 16 17.9 NNW | 339 28.0 NNW | 338 70.6 63.3
9/1/26 - 0800 69.8 21.5 16 18.6 NNW | 337 26.2 NNW | 337 69.9 63.3
9/1/26 - 0750 69.5 21.2 16 17.8 NNW | 336 25.4 NNW | 343 69.9 63.3
9/1/26 - 0740 69.2 20.8 16 18.2 NNW | 336 24.9 NNW | 336 69.4 63.3
9/1/26 - 0730 68.9 20.8 16 17.6 NNW | 339 26.4 NNW | 333 69.4 63.3
9/1/26 - 0720 67.8 21.0 17 16.3 NNW | 339 23.5 NNW | 347 69.4 63.3
9/1/26 - 0710 66.7 21.3 18 14.5 NNW | 341 22.4 NNW | 336 69.4 63.3
9/1/26 - 0700 64.8 22.1 19 12.9 NNW | 342 18.3 NNW | 340 69.4 63.3
9/1/26 - 0650 63.8 22.9 21 13.8 NNW | 347 18.2 N | 349 69.4 63.3
9/1/26 - 0640 64.0 22.8 21 13.6 N | 349 17.1 NNW | 348 69.4 63.3
9/1/26 - 0630 64.5 22.4 20 13.8 NNW | 347 18.6 NNW | 343 69.4 63.3
9/1/26 - 0620 63.7 22.9 21 13.7 NNW | 346 19.7 NNW | 341 69.4 63.3
9/1/26 - 0610 64.0 23.2 21 13.7 NNW | 346 17.5 NNW | 348 69.4 63.5
9/1/26 - 0600 64.5 23.0 20 14.2 NNW | 346 18.8 NNW | 345 69.4 63.9
9/1/26 - 0550 64.6 22.9 20 14.0 NNW | 344 19.4 N | 353 69.4 63.9
9/1/26 - 0540 64.2 23.8 21 13.5 NNW | 344 18.3 NNW | 340 69.4 63.9
9/1/26 - 0530 64.8 24.3 21 14.2 NNW | 344 20.2 NNW | 345 69.4 64.5
9/1/26 - 0520 64.9 25.0 22 14.8 NNW | 346 19.0 N | 353 69.4 64.6
9/1/26 - 0510 65.0 24.8 22 16.0 NNW | 348 20.6 NNW | 343 69.4 64.6
9/1/26 - 0500 65.1 24.9 22 15.6 NNW | 348 20.2 N | 353 69.4 64.6
9/1/26 - 0450 64.9 25.4 22 13.2 NNW | 346 19.6 N | 350 69.4 64.6
9/1/26 - 0440 64.9 26.2 23 11.9 NNW | 345 16.4 NNW | 346 69.4 64.6
9/1/26 - 0430 64.7 27.1 24 11.5 NNW | 345 15.6 NNW | 346 69.4 64.6
9/1/26 - 0420 64.8 27.0 24 11.4 NNW | 344 15.0 N | 349 69.4 64.7
9/1/26 - 0410 64.9 26.6 23 12.0 NNW | 347 15.7 NNW | 348 69.4 64.8
9/1/26 - 0400 65.4 26.8 23 11.2 N | 350 14.8 N | 352 69.4 65.1
9/1/26 - 0350 66.4 28.0 24 12.0 N | 352 17.8 N | 351 69.4 65.9
9/1/26 - 0340 66.9 29.5 24 13.5 N | 357 18.0 N | 354 69.4 66.5
9/1/26 - 0330 66.8 29.2 24 13.0 N | 356 20.1 N | 2 69.4 66.5
9/1/26 - 0320 66.6 28.2 23 13.1 N | 0 17.7 N | 6 69.4 66.5
9/1/26 - 0310 66.6 28.2 23 12.4 N | 2 17.2 WNW | 298 69.4 66.5
9/1/26 - 0300 66.8 28.0 23 12.7 N | 0 18.4 N | 0 69.4 66.7
9/1/26 - 0250 67.0 28.2 23 12.1 N | 359 17.3 NNE | 15 69.4 66.8
9/1/26 - 0240 67.0 27.8 23 11.6 N | 358 16.5 N | 3 69.4 66.8
9/1/26 - 0230 67.3 27.8 23 13.4 N | 354 20.5 N | 354 69.4 67.0
9/1/26 - 0220 67.6 28.5 23 14.2 N | 353 20.2 N | 349 69.4 67.0
9/1/26 - 0210 67.4 28.8 23 13.4 N | 349 21.6 N | 353 69.4 67.0
9/1/26 - 0200 67.2 28.7 24 12.0 NNW | 343 18.8 NNW | 329 69.4 67.0
9/1/26 - 0150 67.3 27.9 23 13.0 NNW | 339 20.0 N | 351 69.4 67.1
9/1/26 - 0140 67.7 27.2 22 13.1 NNW | 339 18.7 NW | 320 69.4 67.3
9/1/26 - 0130 68.4 27.1 21 15.9 NNW | 336 23.2 NNW | 337 69.4 68.1
9/1/26 - 0120 68.6 28.6 22 15.8 NNW | 336 22.6 N | 349 69.4 68.5
9/1/26 - 0110 69.1 29.4 23 15.9 NNW | 336 23.0 NNW | 339 69.4 68.7
9/1/26 - 0100 69.2 28.6 22 14.8 NNW | 336 22.3 NNW | 334 85.7 68.1
9/1/26 - 0050 69.2 29.1 22 14.4 NNW | 345 19.8 N | 354 85.7 68.1
9/1/26 - 0040 68.7 29.6 23 14.4 N | 353 21.3 N | 354 85.7 68.1
9/1/26 - 0030 69.2 30.1 23 15.9 N | 354 22.8 N | 352 85.7 68.1
9/1/26 - 0020 69.4 31.0 24 15.9 N | 351 22.0 NNW | 341 85.7 68.1
9/1/26 - 0010 69.0 30.2 24 13.4 NNW | 348 21.2 NNW | 343 85.7 68.1
9/1/26 - 0000 69.0 31.3 25 14.4 N | 350 23.2 N | 352 85.7 68.1
8/31/26 - 2350 69.0 33.7 27 13.6 N | 354 19.1 N | 0 85.7 68.1
8/31/26 - 2340 69.0 34.8 28 12.5 N | 357 18.6 N | 350 85.7 68.1
8/31/26 - 2330 69.3 34.9 28 11.8 N | 352 17.2 N | 354 85.7 68.1
8/31/26 - 2320 69.2 32.2 25 11.1 N | 349 15.0 N | 352 85.7 68.1
8/31/26 - 2310 68.8 30.3 24 11.2 NNW | 344 16.4 N | 352 85.7 68.1
8/31/26 - 2300 68.6 30.1 24 10.6 NNW | 346 15.7 NNW | 341 85.7 68.1
8/31/26 - 2250 68.3 29.3 23 10.8 NNW | 348 14.5 NNW | 330 85.7 68.1
8/31/26 - 2240 68.3 30.0 24 11.3 NNW | 340 15.9 NNW | 348 85.7 68.2
8/31/26 - 2230 68.7 29.9 23 14.0 N | 353 18.5 NNW | 341 85.7 68.4
8/31/26 - 2220 69.8 28.5 21 14.4 N | 351 22.0 NNW | 346 85.7 68.6
8/31/26 - 2210 69.8 28.2 21 14.3 N | 352 20.2 N | 351 85.7 68.6
8/31/26 - 2200 69.6 29.9 23 14.4 N | 351 19.6 NNW | 342 85.7 68.6
8/31/26 - 2150 68.9 34.0 27 12.8 N | 356 19.6 NNW | 348 85.7 68.6
8/31/26 - 2140 68.9 36.0 30 11.8 N | 352 15.8 N | 354 85.7 68.6
8/31/26 - 2130 69.4 37.1 31 12.6 NNW | 347 17.7 NNW | 346 85.7 69.2
8/31/26 - 2120 69.5 38.4 32 12.6 NNW | 340 17.5 NNW | 347 85.7 69.3
8/31/26 - 2110 69.6 39.3 33 11.7 NNW | 339 16.1 NNW | 333 85.7 69.4
8/31/26 - 2100 69.7 39.6 33 11.3 NNW | 338 15.0 NNW | 347 85.7 69.6
8/31/26 - 2050 70.2 40.2 34 12.2 NNW | 343 16.7 NNW | 340 85.7 69.9
8/31/26 - 2040 70.6 40.6 34 12.7 NNW | 348 17.2 N | 352 85.7 69.9
8/31/26 - 2030 71.0 41.0 34 13.7 NNW | 348 21.1 NNW | 348 85.7 69.9
8/31/26 - 2020 71.1 41.2 34 12.3 NNW | 346 18.1 NNW | 334 85.7 69.9
8/31/26 - 2010 71.4 41.7 34 12.7 NNW | 344 18.0 N | 353 85.7 69.9
8/31/26 - 2000 71.8 41.0 33 12.0 NNW | 343 17.1 NNW | 338 85.7 69.9
8/31/26 - 1950 72.2 41.6 33 12.2 NNW | 340 17.5 NNW | 331 85.7 69.9
8/31/26 - 1940 72.7 41.6 33 12.8 NNW | 338 20.6 NNW | 341 85.7 69.9
8/31/26 - 1930 73.3 41.3 32 14.2 NNW | 334 20.5 N | 0 85.7 69.9
8/31/26 - 1920 73.8 40.9 30 14.0 NNW | 335 20.8 NNW | 339 85.7 69.9
8/31/26 - 1910 74.4 40.6 30 14.7 NNW | 333 20.5 NW | 325 85.7 69.9
8/31/26 - 1900 75.3 40.6 29 15.6 NNW | 337 21.4 NNW | 331 85.7 69.9
8/31/26 - 1850 76.0 41.4 29 15.9 NNW | 334 21.6 NNW | 341 85.7 69.9
8/31/26 - 1840 76.7 42.5 29 15.2 NNW | 340 21.5 NNW | 340 85.7 69.9
8/31/26 - 1830 76.9 43.3 30 17.0 NNW | 347 23.8 NNW | 342 85.7 69.9
8/31/26 - 1820 77.6 44.4 31 16.1 NNW | 344 22.4 NNW | 341 85.7 69.9
8/31/26 - 1810 78.3 45.2 31 15.8 NNW | 344 23.1 N | 351 85.7 69.9
8/31/26 - 1800 78.8 45.9 31 16.1 NNW | 342 23.1 NNW | 348 85.7 69.9
8/31/26 - 1750 79.0 46.0 31 16.1 NNW | 340 23.3 NNW | 334 85.7 69.9
8/31/26 - 1740 79.7 46.2 31 14.9 NNW | 337 22.6 NNW | 336 85.7 69.9
8/31/26 - 1730 80.3 46.5 30 14.8 NNW | 335 24.3 N | 349 85.7 69.9
8/31/26 - 1720 80.6 46.6 30 13.4 NNW | 341 20.9 N | 354 85.7 69.9
8/31/26 - 1710 80.5 46.8 31 14.3 NNW | 338 19.8 NNW | 328 85.7 69.9
8/31/26 - 1700 81.2 47.1 30 12.9 NNW | 334 23.6 N | 352 85.7 69.9
8/31/26 - 1650 81.7 47.1 30 12.4 NNW | 331 19.6 NNW | 346 85.7 69.9
8/31/26 - 1640 81.4 46.8 30 13.6 NNW | 333 20.3 NW | 320 85.7 69.9
8/31/26 - 1630 81.6 46.7 29 14.7 NNW | 340 21.9 N | 349 85.7 69.9
8/31/26 - 1620 82.2 46.1 28 13.6 NNW | 346 21.7 NNW | 335 85.7 69.9
8/31/26 - 1610 82.6 45.9 28 12.6 NNW | 328 21.7 NW | 321 85.7 69.9
8/31/26 - 1600 82.9 44.7 26 12.7 NNW | 344 19.0 NNW | 347 85.7 69.9
8/31/26 - 1550 82.8 44.3 26 11.2 NNW | 338 18.7 NNW | 334 85.7 69.9
8/31/26 - 1540 82.6 44.3 26 13.0 NNW | 338 19.6 NNW | 330 85.7 69.9
8/31/26 - 1530 82.9 44.7 26 13.5 NNW | 335 24.3 NNW | 339 85.7 69.9
8/31/26 - 1520 83.0 44.4 26 12.9 NNW | 348 21.0 NNW | 342 85.7 69.9
8/31/26 - 1510 82.9 44.6 26 13.2 N | 356 20.7 NNW | 344 85.7 69.9
8/31/26 - 1500 83.4 44.7 26 11.6 NNW | 340 22.8 N | 351 85.7 69.9
8/31/26 - 1450 83.2 44.5 26 13.1 N | 353 23.2 N | 353 85.7 69.9
8/31/26 - 1440 83.6 44.0 25 9.6 NNW | 329 18.6 N | 350 85.7 69.9
8/31/26 - 1430 83.3 44.3 25 12.2 NNW | 345 20.4 NNW | 331 85.7 69.9
8/31/26 - 1420 83.9 44.6 25 10.4 NNW | 343 22.5 NNW | 333 85.7 69.9
8/31/26 - 1410 83.9 44.8 25 9.2 NNW | 335 22.5 N | 2 85.7 69.9
8/31/26 - 1400 83.2 45.2 26 10.5 NNW | 337 18.0 N | 0 85.4 69.9
8/31/26 - 1350 83.1 45.6 27 7.1 N | 351 20.9 NE | 39 85.4 69.9
8/31/26 - 1340 82.8 45.7 27 7.9 N | 349 18.8 N | 352 84.1 69.9
8/31/26 - 1330 82.5 45.6 27 10.6 N | 3 20.7 N | 354 83.5 69.9
8/31/26 - 1320 82.7 46.3 28 9.5 N | 353 18.9 NNE | 25 83.5 69.9
8/31/26 - 1310 82.2 46.4 28 11.4 NNW | 337 18.3 NW | 326 83.1 69.9
8/31/26 - 1300 81.7 47.7 30 11.3 N | 359 23.1 NNW | 336 82.7 69.9
8/31/26 - 1250 81.4 48.0 31 13.7 NNW | 344 21.3 NNW | 342 82.7 69.9
8/31/26 - 1240 81.1 47.8 31 13.0 NNW | 342 21.9 NNW | 342 82.1 69.9
8/31/26 - 1230 81.3 48.6 32 15.4 NNW | 339 23.7 NNW | 340 82.1 69.9
8/31/26 - 1220 81.3 49.6 33 14.0 NNW | 330 23.8 NNW | 343 81.8 69.9
8/31/26 - 1210 80.5 50.2 35 15.3 NNW | 328 27.2 NW | 321 81.8 69.9
Max 83.9 50.2 35 20.0 - 30.4 - 85.7 69.9
Avg 72.9 35.1 25 14.2 - 21.3 - - -
Min 63.7 20.8 16 7.1 - 14.5 - 69.4 63.3